Urandi, Brazil
Current Conditions -  °F | °C
As of 5:00 PM on Thursday 23 Oct 2014 (Local Time) from SBQV Reporting Station
Broken Clouds Broken Clouds  
Wind Chill: 66°   Ceiling: 1200
Heat Index: 66°   Visibility: 6mi
Dew Point: 64°   Wind: 10mph
Humidity: 94%   Direction: 140°SE
Pressure: 30.12"   Gusts: NA
Location:  14.77°S, 42.65°W
Report Text: SBQV 232000Z 14009KT 9999 BKN012 19/18 Q1020
Loading
Personal Weather Stations






























Interactive Weather Map
Tropical Storm Tracking
New forecast layout! Learn more

10-Day Weather Forecast

Advertisements
Track Severe Weather on mobile